Time;durP1;ratioP1;P1;durP2;ratioP2;P2;SDS_P1;SDS_P2;PMS_P1;PMS_P2;Temp;Humidity;BMP_temperature;BMP_pressure;BME280_temperature;BME280_humidity;BME280_pressure;Samples;Min_cycle;Max_cycle;Signal;HPM_P1;HPM_P2
2023/07/22 00:01:32;;;;;;;6.13;2.15;;;;;;;;;;5015882;28;20025;-76
2023/07/22 00:03:58;;;;;;;2.13;1.92;;;;;;;;;;5016466;28;20034;-76
2023/07/22 00:06:24;;;;;;;2.80;1.92;;;;;;;;;;5014475;28;20018;-76
2023/07/22 00:08:49;;;;;;;3.55;1.88;;;;;;;;;;5015815;28;20026;-76
2023/07/22 00:11:15;;;;;;;2.72;1.88;;;;;;;;;;5016047;28;20037;-76
2023/07/22 00:13:40;;;;;;;6.13;2.15;;;;;;;;;;5015127;28;20030;-76
2023/07/22 00:16:07;;;;;;;3.22;2.00;;;;;;;;;;5016265;28;20034;-77
2023/07/22 00:18:33;;;;;;;4.28;1.90;;;;;;;;;;5015934;28;20563;-76
2023/07/22 00:20:59;;;;;;;4.30;1.80;;;;;;;;;;5015843;28;20057;-76
2023/07/22 00:23:24;;;;;;;3.53;2.25;;;;;;;;;;5015682;28;20092;-76
2023/07/22 00:25:49;;;;;;;2.28;1.67;;;;;;;;;;5015205;28;20037;-77
2023/07/22 00:28:15;;;;;;;3.95;2.10;;;;;;;;;;5014510;28;20069;-76
2023/07/22 00:30:41;;;;;;;3.10;1.92;;;;;;;;;;5015337;28;20026;-77
2023/07/22 00:33:06;;;;;;;5.00;2.00;;;;;;;;;;5015250;28;20029;-76
2023/07/22 00:35:32;;;;;;;5.68;2.08;;;;;;;;;;5015468;28;20022;-76
2023/07/22 00:37:58;;;;;;;5.25;1.90;;;;;;;;;;5013624;28;20040;-76
2023/07/22 00:40:23;;;;;;;4.72;1.98;;;;;;;;;;5013712;28;20060;-76
2023/07/22 00:42:49;;;;;;;5.35;1.90;;;;;;;;;;5015122;28;20087;-76
2023/07/22 00:45:14;;;;;;;2.97;1.88;;;;;;;;;;5014804;28;20676;-76
2023/07/22 00:47:39;;;;;;;2.58;2.08;;;;;;;;;;5014649;28;20113;-76
2023/07/22 00:50:07;;;;;;;3.75;2.15;;;;;;;;;;5013207;28;20034;-76
2023/07/22 00:52:33;;;;;;;5.28;1.98;;;;;;;;;;5013351;28;20437;-76
2023/07/22 00:54:59;;;;;;;6.43;2.10;;;;;;;;;;5014398;28;20381;-76
2023/07/22 00:57:24;;;;;;;2.45;1.92;;;;;;;;;;5014304;28;20022;-76
2023/07/22 00:59:50;;;;;;;2.97;2.20;;;;;;;;;;5014691;28;20083;-76
2023/07/22 01:02:15;;;;;;;2.30;1.92;;;;;;;;;;5014393;28;20038;-77
2023/07/22 01:04:41;;;;;;;3.95;2.10;;;;;;;;;;5013101;28;20113;-77
2023/07/22 01:07:07;;;;;;;3.97;2.25;;;;;;;;;;5014774;28;20031;-77
2023/07/22 01:09:39;;;;;;;5.90;2.10;;;;;;;;;;5014639;28;20097;-77
2023/07/22 01:12:11;;;;;;;4.15;2.00;;;;;;;;;;5012968;28;20033;-77
2023/07/22 01:14:38;;;;;;;4.07;1.90;;;;;;;;;;5014366;28;20030;-77
2023/07/22 01:17:05;;;;;;;2.80;2.00;;;;;;;;;;5012846;28;20048;-77
2023/07/22 01:19:32;;;;;;;3.38;2.03;;;;;;;;;;5013949;28;20032;-76
2023/07/22 01:22:00;;;;;;;4.63;2.03;;;;;;;;;;5014044;28;20397;-78
2023/07/22 01:24:26;;;;;;;3.95;2.20;;;;;;;;;;5014188;28;20088;-77
2023/07/22 01:26:51;;;;;;;4.35;2.00;;;;;;;;;;5014256;28;20437;-77
2023/07/22 01:29:16;;;;;;;4.35;1.83;;;;;;;;;;5013929;28;20021;-77
2023/07/22 01:31:42;;;;;;;5.72;2.38;;;;;;;;;;5014053;28;20080;-77
2023/07/22 01:34:07;;;;;;;3.47;2.00;;;;;;;;;;5013998;28;20080;-77
2023/07/22 01:36:32;;;;;;;2.15;1.92;;;;;;;;;;5013762;28;20259;-77
2023/07/22 01:38:57;;;;;;;3.50;2.00;;;;;;;;;;5013418;28;20034;-78
2023/07/22 01:41:23;;;;;;;2.83;1.98;;;;;;;;;;5013445;28;20036;-77
2023/07/22 01:43:48;;;;;;;3.78;1.85;;;;;;;;;;5013632;28;20022;-76
2023/07/22 01:46:14;;;;;;;4.15;2.10;;;;;;;;;;5013642;28;20057;-77
2023/07/22 01:48:39;;;;;;;5.43;2.00;;;;;;;;;;5012240;28;20018;-77
2023/07/22 01:51:05;;;;;;;4.07;2.03;;;;;;;;;;5013865;28;20092;-77
2023/07/22 01:53:30;;;;;;;4.78;2.10;;;;;;;;;;5012225;28;20033;-77
2023/07/22 01:55:55;;;;;;;2.85;1.92;;;;;;;;;;5013590;28;20037;-77
2023/07/22 01:58:21;;;;;;;6.68;2.00;;;;;;;;;;5013678;28;20117;-77
2023/07/22 02:00:50;;;;;;;2.58;1.80;;;;;;;;;;5013367;28;20034;-77
2023/07/22 02:03:15;;;;;;;3.95;1.90;;;;;;;;;;5013695;28;20036;-77
2023/07/22 02:05:41;;;;;;;4.73;1.67;;;;;;;;;;5013385;28;20022;-77
2023/07/22 02:08:06;;;;;;;4.07;2.00;;;;;;;;;;5013373;28;20259;-77
2023/07/22 02:10:31;;;;;;;4.70;2.00;;;;;;;;;;5013420;28;20271;-77
2023/07/22 02:12:56;;;;;;;4.35;2.08;;;;;;;;;;5012027;28;20018;-77
2023/07/22 02:15:24;;;;;;;5.50;1.98;;;;;;;;;;5013188;28;20022;-77
2023/07/22 02:17:49;;;;;;;4.55;2.20;;;;;;;;;;5011927;28;20141;-77
2023/07/22 02:20:14;;;;;;;5.05;2.10;;;;;;;;;;5013793;28;20034;-77
2023/07/22 02:22:39;;;;;;;2.80;2.22;;;;;;;;;;5013260;28;20041;-77
2023/07/22 02:25:06;;;;;;;4.00;2.03;;;;;;;;;;5013214;28;20034;-76
2023/07/22 02:27:31;;;;;;;3.33;2.05;;;;;;;;;;5013094;28;20259;-77
2023/07/22 02:29:56;;;;;;;3.78;1.92;;;;;;;;;;5011937;28;20060;-77
2023/07/22 02:32:22;;;;;;;5.78;2.05;;;;;;;;;;5013171;28;20022;-77
2023/07/22 02:34:47;;;;;;;4.07;2.15;;;;;;;;;;5013002;28;20093;-76
2023/07/22 02:37:12;;;;;;;3.67;2.10;;;;;;;;;;5013263;28;20022;-77
2023/07/22 02:39:37;;;;;;;4.13;2.15;;;;;;;;;;5013003;28;20021;-77
2023/07/22 02:42:03;;;;;;;7.03;2.30;;;;;;;;;;5013364;28;20453;-77
2023/07/22 02:44:28;;;;;;;5.80;2.03;;;;;;;;;;5012909;28;20721;-77
2023/07/22 02:46:53;;;;;;;2.95;2.08;;;;;;;;;;5012036;28;20034;-77
2023/07/22 02:49:19;;;;;;;4.83;2.43;;;;;;;;;;5012801;28;20034;-77
2023/07/22 02:51:44;;;;;;;6.88;2.50;;;;;;;;;;5015080;28;20932;-77
2023/07/22 02:54:09;;;;;;;7.47;2.42;;;;;;;;;;5017346;28;20534;-76
2023/07/22 02:56:35;;;;;;;3.45;2.15;;;;;;;;;;5016658;28;20026;-76
2023/07/22 02:59:00;;;;;;;5.07;2.30;;;;;;;;;;5016664;28;20029;-76
2023/07/22 03:01:25;;;;;;;7.22;2.80;;;;;;;;;;5016651;28;20752;-76
2023/07/22 03:03:51;;;;;;;3.30;2.20;;;;;;;;;;5016961;28;20022;-76
2023/07/22 03:06:16;;;;;;;6.85;2.70;;;;;;;;;;5016820;28;20440;-76
2023/07/22 03:08:41;;;;;;;7.10;2.42;;;;;;;;;;5017016;28;20381;-76
2023/07/22 03:11:07;;;;;;;7.82;2.28;;;;;;;;;;5016376;28;20030;-76
2023/07/22 03:13:33;;;;;;;3.65;2.35;;;;;;;;;;5016342;28;20025;-76
2023/07/22 03:15:59;;;;;;;6.72;2.60;;;;;;;;;;5016503;28;20030;-76
2023/07/22 03:18:24;;;;;;;8.65;2.40;;;;;;;;;;5016300;28;20037;-76
2023/07/22 03:20:49;;;;;;;4.88;2.38;;;;;;;;;;5016328;28;20033;-76
2023/07/22 03:23:14;;;;;;;6.15;2.60;;;;;;;;;;5016293;28;20481;-76
2023/07/22 03:25:41;;;;;;;4.13;2.77;;;;;;;;;;5015012;28;20432;-76
2023/07/22 03:28:07;;;;;;;4.45;2.50;;;;;;;;;;5014929;28;20342;-76
2023/07/22 03:30:33;;;;;;;7.53;3.17;;;;;;;;;;5016323;28;20028;-76
2023/07/22 03:33:00;;;;;;;4.43;2.63;;;;;;;;;;5016408;28;20026;-76
2023/07/22 03:35:25;;;;;;;8.13;2.70;;;;;;;;;;5016274;28;20022;-76
2023/07/22 03:37:50;;;;;;;4.18;2.50;;;;;;;;;;5014661;28;20041;-76
2023/07/22 03:40:19;;;;;;;4.40;2.60;;;;;;;;;;5016055;28;20050;-77
2023/07/22 03:42:46;;;;;;;7.45;2.80;;;;;;;;;;5015913;28;20497;-77
2023/07/22 03:45:11;;;;;;;6.80;2.60;;;;;;;;;;5015962;28;20021;-77
2023/07/22 03:47:38;;;;;;;6.18;2.47;;;;;;;;;;5015956;28;20391;-77
2023/07/22 03:50:04;;;;;;;8.07;3.28;;;;;;;;;;5015853;28;20032;-76
2023/07/22 03:52:29;;;;;;;6.75;2.53;;;;;;;;;;5015920;28;20017;-77
2023/07/22 03:54:55;;;;;;;9.23;2.53;;;;;;;;;;5015817;28;20026;-77
2023/07/22 03:57:25;;;;;;;3.65;2.47;;;;;;;;;;5015835;28;20029;-77
2023/07/22 03:59:50;;;;;;;8.20;3.00;;;;;;;;;;5015901;28;20045;-77
2023/07/22 04:02:15;;;;;;;6.50;3.00;;;;;;;;;;5014910;28;20029;-76
2023/07/22 04:04:41;;;;;;;9.48;3.20;;;;;;;;;;5015244;28;20291;-76
2023/07/22 04:07:08;;;;;;;9.53;2.77;;;;;;;;;;5015607;28;20393;-77
2023/07/22 04:09:33;;;;;;;7.45;2.63;;;;;;;;;;5015645;28;20274;-77
2023/07/22 04:11:58;;;;;;;5.07;2.35;;;;;;;;;;5015766;28;20030;-77
2023/07/22 04:14:23;;;;;;;5.15;2.40;;;;;;;;;;5015529;28;20168;-75
2023/07/22 04:16:49;;;;;;;5.95;2.53;;;;;;;;;;5014215;28;20026;-77
2023/07/22 04:19:16;;;;;;;5.55;2.30;;;;;;;;;;5015108;28;20030;-77
2023/07/22 04:21:41;;;;;;;10.10;2.50;;;;;;;;;;5013865;28;20461;-77
2023/07/22 04:24:07;;;;;;;4.05;2.80;;;;;;;;;;5015088;28;20024;-77
2023/07/22 04:26:32;;;;;;;4.97;2.70;;;;;;;;;;5015017;28;20362;-77
2023/07/22 04:28:57;;;;;;;3.97;2.57;;;;;;;;;;5014973;28;20267;-77
2023/07/22 04:31:22;;;;;;;7.63;2.83;;;;;;;;;;5014852;28;20262;-76
2023/07/22 04:33:48;;;;;;;4.20;2.58;;;;;;;;;;5014816;28;20026;-77
2023/07/22 04:36:13;;;;;;;8.07;2.67;;;;;;;;;;5015097;28;20384;-77
2023/07/22 04:38:38;;;;;;;7.33;3.00;;;;;;;;;;5014872;28;20113;-77
2023/07/22 04:41:04;;;;;;;3.85;2.55;;;;;;;;;;5014734;28;20255;-76
2023/07/22 04:43:30;;;;;;;5.38;2.97;;;;;;;;;;5013469;28;20552;-77
2023/07/22 04:45:55;;;;;;;5.07;2.60;;;;;;;;;;5014687;28;20061;-77
2023/07/22 04:48:22;;;;;;;5.75;2.60;;;;;;;;;;5013262;28;20045;-77
2023/07/22 04:50:48;;;;;;;4.38;2.42;;;;;;;;;;5014596;28;20057;-77
2023/07/22 04:53:13;;;;;;;4.23;2.60;;;;;;;;;;5013218;28;20444;-77
2023/07/22 04:55:40;;;;;;;7.15;2.22;;;;;;;;;;5014486;28;20251;-77
2023/07/22 04:58:05;;;;;;;5.45;2.30;;;;;;;;;;5013134;28;20095;-77
2023/07/22 05:00:30;;;;;;;2.70;2.22;;;;;;;;;;5013129;28;20109;-77
2023/07/22 05:02:56;;;;;;;3.47;2.47;;;;;;;;;;5014309;28;20400;-77
2023/07/22 05:05:21;;;;;;;3.63;2.20;;;;;;;;;;5014285;28;20021;-77
2023/07/22 05:07:49;;;;;;;8.82;2.88;;;;;;;;;;5014251;28;20022;-77
2023/07/22 05:10:14;;;;;;;8.90;2.50;;;;;;;;;;5014273;28;20081;-77
2023/07/22 05:12:40;;;;;;;10.20;2.28;;;;;;;;;;5014509;28;20030;-77
2023/07/22 05:15:06;;;;;;;2.80;2.20;;;;;;;;;;5014160;28;20049;-76
2023/07/22 05:17:31;;;;;;;4.72;2.33;;;;;;;;;;5014046;28;20026;-77
2023/07/22 05:19:57;;;;;;;10.35;2.35;;;;;;;;;;5014338;28;20028;-77
2023/07/22 05:22:22;;;;;;;6.90;2.35;;;;;;;;;;5012658;28;20040;-77
2023/07/22 05:24:48;;;;;;;11.93;2.70;;;;;;;;;;5013903;28;20054;-76
2023/07/22 05:27:13;;;;;;;5.80;2.40;;;;;;;;;;5013826;28;20021;-77
2023/07/22 05:29:38;;;;;;;6.93;2.90;;;;;;;;;;5013828;28;20030;-77
2023/07/22 05:32:04;;;;;;;6.23;2.90;;;;;;;;;;5013839;28;20028;-77
2023/07/22 05:34:29;;;;;;;3.35;2.50;;;;;;;;;;5014226;28;20372;-77
2023/07/22 05:36:54;;;;;;;4.60;2.40;;;;;;;;;;5013806;28;20105;-77
2023/07/22 05:39:19;;;;;;;4.97;2.37;;;;;;;;;;5012439;28;20066;-77
2023/07/22 05:41:45;;;;;;;5.23;2.50;;;;;;;;;;5013702;28;20267;-77
2023/07/22 05:44:10;;;;;;;4.72;2.67;;;;;;;;;;5013682;28;20266;-77
2023/07/22 05:46:35;;;;;;;5.20;2.67;;;;;;;;;;5013872;28;20061;-77
2023/07/22 05:49:00;;;;;;;6.47;2.90;;;;;;;;;;5012174;28;20038;-77
2023/07/22 05:51:26;;;;;;;4.82;2.50;;;;;;;;;;5013623;28;20295;-77
2023/07/22 05:53:51;;;;;;;4.13;2.67;;;;;;;;;;5013482;28;20040;-77
2023/07/22 05:56:16;;;;;;;4.50;2.80;;;;;;;;;;5013804;28;20061;-77
2023/07/22 05:58:42;;;;;;;7.18;2.70;;;;;;;;;;5013706;28;20017;-77
2023/07/22 06:01:07;;;;;;;7.53;2.30;;;;;;;;;;5013420;28;20029;-77
2023/07/22 06:03:33;;;;;;;4.85;2.60;;;;;;;;;;5013408;28;20302;-77
2023/07/22 06:05:58;;;;;;;5.30;2.70;;;;;;;;;;5012112;28;20030;-77
2023/07/22 06:08:24;;;;;;;5.05;2.83;;;;;;;;;;5013445;28;20112;-77
2023/07/22 06:10:49;;;;;;;3.55;2.70;;;;;;;;;;5013328;28;20067;-76
2023/07/22 06:13:14;;;;;;;4.53;2.80;;;;;;;;;;5013212;28;20025;-77
2023/07/22 06:15:39;;;;;;;5.45;3.17;;;;;;;;;;5013303;28;20026;-77
2023/07/22 06:18:08;;;;;;;6.60;2.93;;;;;;;;;;5012779;28;20491;-77
2023/07/22 06:20:34;;;;;;;6.35;3.00;;;;;;;;;;5013486;28;20287;-76
2023/07/22 06:22:59;;;;;;;6.32;2.95;;;;;;;;;;5013141;28;20032;-76
2023/07/22 06:25:25;;;;;;;9.13;2.92;;;;;;;;;;5011987;28;20025;-77
2023/07/22 06:27:50;;;;;;;4.90;2.73;;;;;;;;;;5015761;28;20397;-77
2023/07/22 06:30:15;;;;;;;5.93;2.90;;;;;;;;;;5017215;28;20263;-77
2023/07/22 06:32:41;;;;;;;4.85;2.80;;;;;;;;;;5017172;28;20388;-76
2023/07/22 06:35:07;;;;;;;6.25;2.80;;;;;;;;;;5017179;28;20022;-76
2023/07/22 06:37:33;;;;;;;3.28;2.65;;;;;;;;;;5017214;28;20436;-77
2023/07/22 06:39:59;;;;;;;10.45;2.65;;;;;;;;;;5017218;28;20025;-77
2023/07/22 06:42:24;;;;;;;6.15;3.00;;;;;;;;;;5017175;28;20105;-77
2023/07/22 06:44:49;;;;;;;6.38;2.67;;;;;;;;;;5017589;28;20022;-76
2023/07/22 06:47:15;;;;;;;5.00;2.97;;;;;;;;;;5016999;28;20401;-77
2023/07/22 06:49:42;;;;;;;6.10;2.70;;;;;;;;;;5016876;28;20117;-77
2023/07/22 06:52:07;;;;;;;5.95;3.35;;;;;;;;;;5016871;28;20022;-77
2023/07/22 06:54:34;;;;;;;5.32;2.70;;;;;;;;;;5016826;28;20157;-77
2023/07/22 06:57:00;;;;;;;4.60;2.60;;;;;;;;;;5015440;28;20501;-77
2023/07/22 06:59:26;;;;;;;6.53;2.70;;;;;;;;;;5016636;28;20045;-77
2023/07/22 07:01:51;;;;;;;5.28;2.80;;;;;;;;;;5017088;28;20366;-76
2023/07/22 07:04:17;;;;;;;4.47;2.70;;;;;;;;;;5017438;28;20022;-76
2023/07/22 07:06:42;;;;;;;4.45;2.53;;;;;;;;;;5015362;28;20029;-77
2023/07/22 07:09:07;;;;;;;5.93;2.60;;;;;;;;;;5016455;28;20060;-77
2023/07/22 07:11:32;;;;;;;3.67;2.63;;;;;;;;;;5015552;28;20026;-77
2023/07/22 07:13:58;;;;;;;5.25;2.60;;;;;;;;;;5016298;28;20465;-77
2023/07/22 07:16:28;;;;;;;6.90;2.90;;;;;;;;;;5016340;28;20068;-77
2023/07/22 07:18:55;;;;;;;4.13;2.75;;;;;;;;;;5014969;28;20029;-76
2023/07/22 07:21:20;;;;;;;6.63;3.00;;;;;;;;;;5014984;28;20072;-76
2023/07/22 07:23:45;;;;;;;4.28;2.88;;;;;;;;;;5016465;28;20095;-77
2023/07/22 07:26:11;;;;;;;4.60;2.42;;;;;;;;;;5015340;28;20511;-77
2023/07/22 07:28:36;;;;;;;5.47;2.80;;;;;;;;;;5016940;28;20029;-77
2023/07/22 07:31:02;;;;;;;4.25;2.70;;;;;;;;;;5015310;28;20051;-77
2023/07/22 07:33:28;;;;;;;4.93;2.78;;;;;;;;;;5014943;28;20022;-77
2023/07/22 07:35:53;;;;;;;5.32;2.70;;;;;;;;;;5016915;28;20036;-77
2023/07/22 07:38:18;;;;;;;4.68;2.90;;;;;;;;;;5016221;28;20045;-77
2023/07/22 07:40:43;;;;;;;4.00;2.87;;;;;;;;;;5015575;28;20022;-77
2023/07/22 07:43:09;;;;;;;6.90;3.10;;;;;;;;;;5016695;28;20310;-77
2023/07/22 07:45:38;;;;;;;6.97;2.97;;;;;;;;;;5016563;28;20259;-77
2023/07/22 07:48:03;;;;;;;4.72;3.33;;;;;;;;;;5016164;28;20278;-77
2023/07/22 07:50:29;;;;;;;6.00;2.92;;;;;;;;;;5016162;28;20432;-77
2023/07/22 07:52:54;;;;;;;6.78;3.20;;;;;;;;;;5014951;28;20021;-77
2023/07/22 07:55:19;;;;;;;2.93;2.63;;;;;;;;;;5016893;28;20022;-77
2023/07/22 07:57:44;;;;;;;4.07;2.90;;;;;;;;;;5016697;28;20287;-77
2023/07/22 08:00:10;;;;;;;5.43;2.78;;;;;;;;;;5015750;28;20271;-77
2023/07/22 08:02:36;;;;;;;4.30;2.60;;;;;;;;;;5015688;28;20498;-77
2023/07/22 08:05:02;;;;;;;5.72;2.85;;;;;;;;;;5015797;28;20029;-77
2023/07/22 08:07:27;;;;;;;4.50;2.55;;;;;;;;;;5014286;28;20017;-77
2023/07/22 08:09:52;;;;;;;6.33;2.73;;;;;;;;;;5015521;28;20052;-77
2023/07/22 08:12:18;;;;;;;5.68;2.60;;;;;;;;;;5015309;28;20279;-77
2023/07/22 08:14:43;;;;;;;8.65;2.63;;;;;;;;;;5015246;28;20050;-78
2023/07/22 08:17:09;;;;;;;9.25;2.83;;;;;;;;;;5015379;28;20108;-77
2023/07/22 08:19:34;;;;;;;6.45;2.53;;;;;;;;;;5015651;28;20068;-77
2023/07/22 08:21:59;;;;;;;8.60;3.20;;;;;;;;;;5015914;28;20030;-77
2023/07/22 08:24:24;;;;;;;6.73;2.70;;;;;;;;;;5015400;28;20299;-77
2023/07/22 08:26:50;;;;;;;3.23;2.60;;;;;;;;;;5015148;28;20273;-77
2023/07/22 08:29:15;;;;;;;5.13;2.47;;;;;;;;;;5015014;28;20302;-77
2023/07/22 08:31:40;;;;;;;4.00;2.58;;;;;;;;;;5014931;28;20032;-77
2023/07/22 08:34:06;;;;;;;5.18;3.15;;;;;;;;;;5013881;28;20041;-78
2023/07/22 08:36:31;;;;;;;5.05;2.78;;;;;;;;;;5015019;28;20022;-77
2023/07/22 08:38:56;;;;;;;10.80;3.27;;;;;;;;;;5014891;28;20462;-76
2023/07/22 08:41:25;;;;;;;3.92;2.60;;;;;;;;;;5015249;28;20259;-77
2023/07/22 08:43:50;;;;;;;5.78;3.05;;;;;;;;;;5014956;28;20018;-76
2023/07/22 08:46:19;;;;;;;7.32;3.00;;;;;;;;;;5013701;28;20030;-78
2023/07/22 08:48:46;;;;;;;3.83;2.88;;;;;;;;;;5014007;28;20046;-77
2023/07/22 08:51:18;;;;;;;5.10;2.47;;;;;;;;;;5014678;28;20097;-74
2023/07/22 08:53:45;;;;;;;7.43;2.60;;;;;;;;;;5014497;28;20544;-76
2023/07/22 08:56:11;;;;;;;4.43;2.67;;;;;;;;;;5014360;28;20164;-77
2023/07/22 08:58:37;;;;;;;7.05;3.10;;;;;;;;;;5014547;28;20077;-77
2023/07/22 09:01:03;;;;;;;4.00;2.72;;;;;;;;;;5013401;28;20022;-76
2023/07/22 09:03:28;;;;;;;6.13;2.75;;;;;;;;;;5014442;28;20109;-76
2023/07/22 09:05:55;;;;;;;3.50;2.22;;;;;;;;;;5013565;28;20022;-75
2023/07/22 09:08:20;;;;;;;4.15;2.67;;;;;;;;;;5014285;28;20385;-76
2023/07/22 09:10:46;;;;;;;8.25;2.70;;;;;;;;;;5014220;28;20030;-77
2023/07/22 09:13:15;;;;;;;4.82;2.60;;;;;;;;;;5014271;28;20121;-76
2023/07/22 09:15:42;;;;;;;5.25;1.90;;;;;;;;;;5014344;28;20030;-76
2023/07/22 09:18:07;;;;;;;4.10;2.10;;;;;;;;;;5012827;28;20543;-76
2023/07/22 09:20:34;;;;;;;6.95;2.40;;;;;;;;;;5013184;28;20030;-76
2023/07/22 09:23:00;;;;;;;3.53;2.05;;;;;;;;;;5014242;28;20481;-75
2023/07/22 09:25:27;;;;;;;3.42;2.35;;;;;;;;;;5014585;28;20118;-76
2023/07/22 09:28:02;;;;;;;4.53;2.15;;;;;;;;;;5013893;28;20021;-76
2023/07/22 09:30:47;;;;;;;5.35;2.50;;;;;;;;;;5014087;28;20069;-76
2023/07/22 09:33:22;;;;;;;2.95;2.10;;;;;;;;;;5014259;28;20025;-76
2023/07/22 09:35:49;;;;;;;3.17;2.17;;;;;;;;;;5013938;28;20026;-76
2023/07/22 09:38:21;;;;;;;4.03;2.00;;;;;;;;;;5012525;28;20029;-77
2023/07/22 09:40:47;;;;;;;5.38;2.03;;;;;;;;;;5013826;28;20065;-76
2023/07/22 09:43:12;;;;;;;4.07;2.00;;;;;;;;;;5013820;28;20068;-76
2023/07/22 09:45:37;;;;;;;7.95;1.88;;;;;;;;;;5012481;28;20065;-77
2023/07/22 09:48:03;;;;;;;3.03;2.15;;;;;;;;;;5013747;28;20029;-76
2023/07/22 09:50:32;;;;;;;2.75;2.10;;;;;;;;;;5012315;28;20033;-76
2023/07/22 09:52:59;;;;;;;3.65;2.00;;;;;;;;;;5013566;28;20029;-76
2023/07/22 09:55:25;;;;;;;3.00;2.08;;;;;;;;;;5013550;28;20105;-76
2023/07/22 09:58:01;;;;;;;3.28;2.05;;;;;;;;;;5013688;28;20029;-75
2023/07/22 10:00:31;;;;;;;3.85;2.10;;;;;;;;;;5011559;28;20029;-75
2023/07/22 10:02:57;;;;;;;5.45;1.73;;;;;;;;;;5013782;28;20033;-75
2023/07/22 10:05:24;;;;;;;2.15;1.75;;;;;;;;;;5012443;28;20385;-75
2023/07/22 10:07:52;;;;;;;2.05;1.85;;;;;;;;;;5013652;28;20033;-75
2023/07/22 10:10:20;;;;;;;2.78;2.00;;;;;;;;;;5012847;28;20029;-75
2023/07/22 10:12:46;;;;;;;5.03;1.92;;;;;;;;;;5012771;28;20504;-76
2023/07/22 10:15:13;;;;;;;2.13;1.90;;;;;;;;;;5013646;28;20037;-76
2023/07/22 10:17:41;;;;;;;3.00;2.10;;;;;;;;;;5013114;28;20030;-72
2023/07/22 10:20:07;;;;;;;3.25;2.10;;;;;;;;;;5011955;28;20080;-73
2023/07/22 10:22:37;;;;;;;3.50;2.05;;;;;;;;;;5013631;28;20045;-79
2023/07/22 10:25:05;;;;;;;3.97;1.88;;;;;;;;;;5013277;28;20030;-72
2023/07/22 10:27:31;;;;;;;2.97;2.10;;;;;;;;;;5013398;28;20389;-75
2023/07/22 10:29:56;;;;;;;2.78;1.83;;;;;;;;;;5014161;28;20042;-76
2023/07/22 10:32:21;;;;;;;3.60;1.98;;;;;;;;;;5013452;28;20026;-77
2023/07/22 10:34:50;;;;;;;2.53;2.00;;;;;;;;;;5011889;28;20022;-76
2023/07/22 10:37:18;;;;;;;3.95;1.60;;;;;;;;;;5012978;28;20030;-76
2023/07/22 10:39:43;;;;;;;2.58;1.73;;;;;;;;;;5012550;28;20512;-76
2023/07/22 10:42:09;;;;;;;3.40;1.70;;;;;;;;;;5014561;28;20029;-76
2023/07/22 10:44:38;;;;;;;2.10;1.63;;;;;;;;;;5013193;28;20739;-76
2023/07/22 10:47:04;;;;;;;4.95;2.10;;;;;;;;;;5013122;28;20029;-77
2023/07/22 10:49:47;;;;;;;3.47;2.20;;;;;;;;;;5011718;28;20038;-77
2023/07/22 10:52:15;;;;;;;4.95;1.80;;;;;;;;;;5013459;28;20032;-77
2023/07/22 10:54:40;;;;;;;2.70;1.67;;;;;;;;;;5012967;28;20025;-77
2023/07/22 10:57:15;;;;;;;2.83;1.67;;;;;;;;;;5011818;28;20057;-76
2023/07/22 10:59:48;;;;;;;4.30;1.80;;;;;;;;;;5012973;28;20026;-76
2023/07/22 11:02:24;;;;;;;2.63;1.85;;;;;;;;;;5013019;28;20037;-76
2023/07/22 11:04:49;;;;;;;1.65;1.55;;;;;;;;;;5013371;28;20030;-76
2023/07/22 11:07:14;;;;;;;2.63;1.90;;;;;;;;;;5012930;28;20072;-76
2023/07/22 11:09:42;;;;;;;3.75;1.80;;;;;;;;;;5011639;28;20535;-78
2023/07/22 11:12:10;;;;;;;2.95;2.08;;;;;;;;;;5012588;28;20118;-77
2023/07/22 11:14:46;;;;;;;3.70;1.90;;;;;;;;;;5016468;28;20480;-77
2023/07/22 11:17:12;;;;;;;2.65;1.70;;;;;;;;;;5015534;28;20084;-77
2023/07/22 11:19:38;;;;;;;2.22;1.85;;;;;;;;;;5016543;28;20034;-77
2023/07/22 11:22:05;;;;;;;3.22;1.90;;;;;;;;;;5015167;28;20496;-76
2023/07/22 11:24:34;;;;;;;3.97;1.92;;;;;;;;;;5016892;28;20122;-77
2023/07/22 11:27:01;;;;;;;4.05;2.00;;;;;;;;;;5016865;28;20453;-78
2023/07/22 11:29:27;;;;;;;2.47;1.90;;;;;;;;;;5016413;28;20033;-77
2023/07/22 11:31:52;;;;;;;3.05;2.13;;;;;;;;;;5015186;28;20026;-77
2023/07/22 11:34:20;;;;;;;2.40;1.77;;;;;;;;;;5016664;28;20018;-76
2023/07/22 11:36:46;;;;;;;2.22;1.67;;;;;;;;;;5016300;28;20037;-77
2023/07/22 11:39:14;;;;;;;3.00;2.03;;;;;;;;;;5015999;28;20037;-77
2023/07/22 11:41:41;;;;;;;2.97;1.83;;;;;;;;;;5016546;28;20030;-77
2023/07/22 11:44:09;;;;;;;3.35;1.80;;;;;;;;;;5016524;28;20029;-76
2023/07/22 11:46:35;;;;;;;5.25;1.95;;;;;;;;;;5014667;28;20481;-76
2023/07/22 11:49:00;;;;;;;2.58;2.10;;;;;;;;;;5014661;28;20048;-77
2023/07/22 11:51:26;;;;;;;3.42;1.83;;;;;;;;;;5016738;28;20030;-77
2023/07/22 11:53:52;;;;;;;4.03;1.90;;;;;;;;;;5017029;28;20076;-78
2023/07/22 11:56:22;;;;;;;2.60;2.00;;;;;;;;;;5016189;28;20029;-77
2023/07/22 11:58:52;;;;;;;5.80;2.00;;;;;;;;;;5014910;28;20026;-77
2023/07/22 12:01:18;;;;;;;2.97;1.90;;;;;;;;;;5016518;28;20076;-77
2023/07/22 12:03:44;;;;;;;3.75;1.90;;;;;;;;;;5015978;28;20025;-78
2023/07/22 12:06:10;;;;;;;2.38;1.88;;;;;;;;;;5016113;28;20018;-77
2023/07/22 12:08:36;;;;;;;5.68;1.80;;;;;;;;;;5014608;28;20033;-77
2023/07/22 12:11:04;;;;;;;2.30;2.00;;;;;;;;;;5016900;28;20030;-77
2023/07/22 12:13:36;;;;;;;2.40;1.75;;;;;;;;;;5016653;28;20025;-78
2023/07/22 12:16:05;;;;;;;3.22;1.90;;;;;;;;;;5015926;28;20103;-77
2023/07/22 12:18:46;;;;;;;3.53;2.08;;;;;;;;;;5015323;28;20026;-77
2023/07/22 12:21:14;;;;;;;3.58;2.13;;;;;;;;;;5016225;28;20045;-77
2023/07/22 12:23:41;;;;;;;2.70;2.00;;;;;;;;;;5014873;28;20108;-78
2023/07/22 12:26:07;;;;;;;2.75;1.70;;;;;;;;;;5015961;28;20523;-78
2023/07/22 12:28:32;;;;;;;2.72;1.95;;;;;;;;;;5014488;28;20112;-78
2023/07/22 12:30:58;;;;;;;2.47;1.52;;;;;;;;;;5015782;28;20026;-77
2023/07/22 12:33:28;;;;;;;2.60;1.83;;;;;;;;;;5017483;28;20038;-80
2023/07/22 12:35:54;;;;;;;2.35;1.77;;;;;;;;;;5015098;28;20034;-78
2023/07/22 12:38:20;;;;;;;2.42;1.75;;;;;;;;;;5017684;28;20486;-78
2023/07/22 12:40:45;;;;;;;1.90;1.70;;;;;;;;;;5015085;28;20064;-77
2023/07/22 12:43:10;;;;;;;3.22;1.70;;;;;;;;;;5014903;28;20500;-77
2023/07/22 12:45:35;;;;;;;2.53;1.65;;;;;;;;;;5015106;28;20026;-77
2023/07/22 12:48:01;;;;;;;2.47;1.80;;;;;;;;;;5014989;28;20030;-77
2023/07/22 12:50:26;;;;;;;3.47;1.90;;;;;;;;;;5015092;28;20026;-77
2023/07/22 12:52:51;;;;;;;3.10;1.58;;;;;;;;;;5015689;28;20033;-77
2023/07/22 12:55:17;;;;;;;2.53;1.73;;;;;;;;;;5014848;28;20463;-77
2023/07/22 12:57:42;;;;;;;3.13;1.90;;;;;;;;;;5014347;28;20608;-77
2023/07/22 13:00:10;;;;;;;3.23;1.73;;;;;;;;;;5014411;28;20271;-77
2023/07/22 13:02:36;;;;;;;2.25;1.50;;;;;;;;;;5015001;28;20263;-78
2023/07/22 13:05:01;;;;;;;2.30;1.77;;;;;;;;;;5015205;28;20500;-77
2023/07/22 13:07:27;;;;;;;2.88;1.70;;;;;;;;;;5014919;28;20041;-77
2023/07/22 13:09:55;;;;;;;4.30;1.80;;;;;;;;;;5015012;28;20439;-78
2023/07/22 13:12:20;;;;;;;3.55;1.98;;;;;;;;;;5013346;28;20263;-78
2023/07/22 13:14:45;;;;;;;2.50;1.80;;;;;;;;;;5014450;28;20481;-77
2023/07/22 13:17:11;;;;;;;2.20;1.77;;;;;;;;;;5014467;28;20268;-77
2023/07/22 13:19:36;;;;;;;7.23;1.80;;;;;;;;;;5014473;28;20021;-77
2023/07/22 13:22:01;;;;;;;3.15;1.73;;;;;;;;;;5014593;28;20266;-78
2023/07/22 13:24:26;;;;;;;2.50;1.70;;;;;;;;;;5013426;28;20476;-77
2023/07/22 13:26:52;;;;;;;2.72;1.80;;;;;;;;;;5014342;28;20113;-77
2023/07/22 13:29:17;;;;;;;5.30;1.80;;;;;;;;;;5014683;28;20025;-77
2023/07/22 13:31:42;;;;;;;5.33;1.80;;;;;;;;;;5014092;28;20263;-77
2023/07/22 13:34:07;;;;;;;2.77;1.80;;;;;;;;;;5013709;28;20820;-77
2023/07/22 13:36:33;;;;;;;2.85;1.83;;;;;;;;;;5013670;28;20294;-77
2023/07/22 13:38:58;;;;;;;2.83;1.70;;;;;;;;;;5012438;28;20021;-76
2023/07/22 13:41:23;;;;;;;5.80;1.90;;;;;;;;;;5013701;28;20324;-77
2023/07/22 13:43:48;;;;;;;2.83;1.58;;;;;;;;;;5013595;28;20259;-77
2023/07/22 13:46:13;;;;;;;2.97;1.93;;;;;;;;;;5013782;28;20075;-79
2023/07/22 13:48:39;;;;;;;2.97;1.80;;;;;;;;;;5013777;28;20337;-76
2023/07/22 13:51:04;;;;;;;3.63;1.80;;;;;;;;;;5013979;28;20263;-78
2023/07/22 13:53:29;;;;;;;2.15;1.83;;;;;;;;;;5012478;28;20286;-76
2023/07/22 13:55:54;;;;;;;1.97;1.60;;;;;;;;;;5012350;28;20030;-76
2023/07/22 13:58:20;;;;;;;2.80;1.80;;;;;;;;;;5013453;28;20255;-77
2023/07/22 14:00:45;;;;;;;2.23;1.70;;;;;;;;;;5014926;28;20259;-76
2023/07/22 14:03:10;;;;;;;8.75;1.90;;;;;;;;;;5013167;28;20314;-78
2023/07/22 14:05:36;;;;;;;3.22;2.05;;;;;;;;;;5012174;28;20026;-77
2023/07/22 14:08:01;;;;;;;2.63;2.00;;;;;;;;;;5012746;28;20033;-78
2023/07/22 14:10:26;;;;;;;4.22;1.80;;;;;;;;;;5012230;28;20018;-77
2023/07/22 14:12:51;;;;;;;2.58;1.80;;;;;;;;;;5012804;28;20473;-76
2023/07/22 14:15:17;;;;;;;3.00;2.10;;;;;;;;;;5011935;28;20034;-76
2023/07/22 14:17:42;;;;;;;3.83;1.70;;;;;;;;;;5013164;28;20032;-76
2023/07/22 14:20:08;;;;;;;3.70;1.67;;;;;;;;;;5013199;28;20742;-76
2023/07/22 14:22:33;;;;;;;4.03;2.10;;;;;;;;;;5013247;28;20034;-77
2023/07/22 14:24:58;;;;;;;4.13;2.10;;;;;;;;;;5013105;28;20033;-77
2023/07/22 14:27:23;;;;;;;4.07;1.77;;;;;;;;;;5013135;28;20088;-77
2023/07/22 14:29:49;;;;;;;3.00;2.10;;;;;;;;;;5013152;28;20270;-76
2023/07/22 14:32:16;;;;;;;15.75;9.93;;;;;;;;;;5013257;28;20265;-77
2023/07/22 14:34:41;;;;;;;79.13;51.40;;;;;;;;;;5013378;28;20018;-77
2023/07/22 14:37:07;;;;;;;35.40;22.50;;;;;;;;;;5013049;28;20032;-77